Johnstown, Ohio
Current Conditions -  °F | °C
As of 3:51 AM on Saturday 25 Oct 2014 (Local Time) from KCMH Reporting Station
Broken Clouds Broken Clouds  
Wind Chill: 46°   Ceiling: 25000
Heat Index: 46°   Visibility: 10mi
Dew Point: 38°   Wind: 0mph
Humidity: 73%   Direction: NA
Pressure: 30"   Gusts: NA
Location:  40.15°N, 82.69°W
Report Text: KCMH 250751Z 00000KT 10SM BKN250 08/03 A3000 RMK AO2 SLP157 T00780033
Loading
Personal Weather Stations






























Interactive Weather Map
Tropical Storm Tracking
New forecast layout! Learn more

10-Day Weather Forecast

Advertisements
Track Severe Weather on mobile